createdAt,value
2022-08-04T00:00:03.844Z,25.00
2022-08-04T00:05:11.414Z,24.90
2022-08-04T00:10:20.383Z,24.90
2022-08-04T00:15:25.685Z,24.90
2022-08-04T00:20:33.097Z,24.90
2022-08-04T00:25:40.576Z,24.80
2022-08-04T00:30:45.831Z,24.80
2022-08-04T00:35:50.543Z,24.70
2022-08-04T00:41:05.390Z,24.70
2022-08-04T00:46:41.014Z,24.70
2022-08-04T00:52:33.448Z,24.60
2022-08-04T00:57:34.412Z,24.60
2022-08-04T01:02:51.551Z,24.60
2022-08-04T01:08:09.890Z,24.50
2022-08-04T01:13:34.649Z,24.50
2022-08-04T01:18:50.132Z,24.40
2022-08-04T01:24:20.717Z,24.40
2022-08-04T01:29:30.467Z,24.40
2022-08-04T01:34:52.407Z,24.30
2022-08-04T01:40:04.235Z,24.30
2022-08-04T01:45:11.884Z,24.20
2022-08-04T01:50:15.794Z,24.20
2022-08-04T01:55:20.594Z,24.20
2022-08-04T02:00:27.882Z,24.10
2022-08-04T02:06:03.430Z,24.10
2022-08-04T02:11:04.986Z,24.10
2022-08-04T02:16:17.618Z,24.00
2022-08-04T02:21:22.693Z,24.00
2022-08-04T02:26:30.048Z,23.90
2022-08-04T02:31:40.497Z,23.90
2022-08-04T02:36:44.638Z,23.90
2022-08-04T02:41:49.220Z,23.80
2022-08-04T02:46:55.638Z,23.80
2022-08-04T02:51:59.533Z,23.80
2022-08-04T02:57:08.345Z,23.70
2022-08-04T03:02:13.607Z,23.70
2022-08-04T03:07:53.898Z,23.70
2022-08-04T03:13:29.412Z,23.60
2022-08-04T03:19:00.796Z,23.60
2022-08-04T03:24:53.301Z,23.60
2022-08-04T03:30:07.656Z,23.60
2022-08-04T03:35:40.558Z,23.50
2022-08-04T03:41:05.359Z,23.40
2022-08-04T03:46:54.153Z,23.40
2022-08-04T03:52:25.166Z,23.40
2022-08-04T03:57:53.332Z,23.40
2022-08-04T04:03:30.557Z,23.30
2022-08-04T04:08:54.621Z,23.40
2022-08-04T04:14:16.706Z,23.30
2022-08-04T04:19:52.513Z,23.30
2022-08-04T04:25:32.135Z,23.20
2022-08-04T04:30:46.936Z,23.20
2022-08-04T04:36:04.763Z,23.20
2022-08-04T04:41:29.311Z,23.20
2022-08-04T04:46:42.288Z,23.20
2022-08-04T04:51:50.916Z,23.20
2022-08-04T04:57:06.117Z,23.20
2022-08-04T05:02:35.690Z,23.20
2022-08-04T05:08:44.990Z,23.20
2022-08-04T05:14:34.555Z,23.20
2022-08-04T05:19:21.691Z,23.20
2022-08-04T05:24:26.890Z,23.20
2022-08-04T05:29:36.458Z,23.20
2022-08-04T05:34:43.513Z,23.20
2022-08-04T05:39:49.615Z,23.20
2022-08-04T05:44:56.440Z,23.20
2022-08-04T05:50:03.046Z,23.30
2022-08-04T05:55:08.804Z,23.30
2022-08-04T06:00:38.776Z,23.30
2022-08-04T06:05:39.173Z,23.30
2022-08-04T06:10:45.843Z,23.40
2022-08-04T06:15:51.790Z,23.40
2022-08-04T06:20:55.891Z,23.40
2022-08-04T06:26:02.643Z,23.50
2022-08-04T06:32:31.310Z,23.50
2022-08-04T06:36:36.825Z,23.60
2022-08-04T06:42:02.551Z,23.60
2022-08-04T06:47:08.198Z,23.60
2022-08-04T06:52:19.533Z,23.60
2022-08-04T06:57:28.964Z,23.70
2022-08-04T07:02:40.290Z,23.60
2022-08-04T07:07:57.457Z,23.70
2022-08-04T07:13:03.456Z,23.60
2022-08-04T07:18:08.914Z,23.70
2022-08-04T07:23:17.600Z,23.70
2022-08-04T07:28:22.796Z,23.70
2022-08-04T07:33:29.398Z,23.80
2022-08-04T07:38:34.028Z,23.80
2022-08-04T07:43:42.018Z,23.90
2022-08-04T07:48:47.205Z,23.90
2022-08-04T07:53:55.224Z,24.00
2022-08-04T07:59:01.074Z,24.10
2022-08-04T08:04:08.617Z,24.20
2022-08-04T08:09:14.934Z,24.20
2022-08-04T08:14:20.026Z,24.30
2022-08-04T08:19:25.184Z,24.40
2022-08-04T08:24:29.519Z,24.60
2022-08-04T08:29:35.602Z,24.70
2022-08-04T08:34:41.115Z,24.80
2022-08-04T08:39:52.560Z,24.90
2022-08-04T08:45:35.015Z,24.90
2022-08-04T08:51:19.431Z,25.00
2022-08-04T08:56:35.516Z,25.10
2022-08-04T09:01:52.942Z,25.20
2022-08-04T09:07:11.768Z,25.20
2022-08-04T09:12:25.857Z,25.20
2022-08-04T09:17:34.908Z,25.30
2022-08-04T09:22:50.742Z,25.30
2022-08-04T09:27:56.545Z,25.30
2022-08-04T09:33:11.777Z,25.30
2022-08-04T09:38:30.956Z,25.30
2022-08-04T09:43:59.488Z,25.20
2022-08-04T09:49:17.593Z,25.20
2022-08-04T09:54:30.647Z,25.10
2022-08-04T09:59:43.507Z,25.10
2022-08-04T10:04:50.599Z,25.00
2022-08-04T10:10:24.348Z,24.90
2022-08-04T10:15:35.303Z,24.90
2022-08-04T10:21:04.662Z,24.80
2022-08-04T10:26:31.807Z,24.70
2022-08-04T10:31:59.777Z,24.60
2022-08-04T10:37:13.321Z,24.60
2022-08-04T10:42:26.220Z,24.50
2022-08-04T10:47:45.361Z,24.50
2022-08-04T10:53:04.456Z,24.50
2022-08-04T10:58:17.808Z,24.40
2022-08-04T11:03:26.095Z,24.40
2022-08-04T11:08:35.888Z,24.40
2022-08-04T11:13:50.949Z,24.40
2022-08-04T11:19:07.911Z,24.40
2022-08-04T11:24:18.263Z,24.40
2022-08-04T11:29:29.814Z,24.40
2022-08-04T11:34:36.699Z,24.50
2022-08-04T11:39:47.449Z,24.60
2022-08-04T11:44:57.112Z,24.70
2022-08-04T11:50:07.179Z,24.80
2022-08-04T11:55:15.870Z,24.80
2022-08-04T12:00:22.575Z,24.80
2022-08-04T12:05:37.041Z,24.80
2022-08-04T12:10:47.575Z,24.80
2022-08-04T12:16:08.933Z,24.90
2022-08-04T12:21:16.837Z,24.90
2022-08-04T12:26:25.662Z,25.00
2022-08-04T12:31:37.751Z,25.10
2022-08-04T12:36:48.104Z,25.20
2022-08-04T12:42:04.829Z,25.30
2022-08-04T12:47:26.245Z,25.50
2022-08-04T12:58:14.325Z,25.70
2022-08-04T13:03:23.917Z,25.80
2022-08-04T13:08:28.076Z,26.00
2022-08-04T13:13:37.906Z,26.10
2022-08-04T13:18:50.228Z,26.20
2022-08-04T13:24:20.683Z,26.20
2022-08-04T13:29:58.251Z,26.30
2022-08-04T13:34:53.415Z,26.30
2022-08-04T13:39:58.549Z,26.40
2022-08-04T13:45:02.787Z,26.50
2022-08-04T13:50:19.531Z,26.50
2022-08-04T13:55:29.436Z,26.50
2022-08-04T14:00:44.260Z,26.60
2022-08-04T14:06:09.421Z,26.70
2022-08-04T14:12:06.143Z,26.70
2022-08-04T14:16:38.190Z,26.70
2022-08-04T14:21:43.288Z,26.70
2022-08-04T14:26:47.091Z,26.80
2022-08-04T14:31:57.716Z,26.80
2022-08-04T14:37:17.782Z,26.80
2022-08-04T14:42:41.624Z,26.80
2022-08-04T14:47:52.756Z,26.90
2022-08-04T14:53:04.757Z,26.90
2022-08-04T14:58:33.694Z,26.80
2022-08-04T15:03:33.075Z,26.80
2022-08-04T15:08:38.696Z,26.70
2022-08-04T15:13:42.581Z,26.70
2022-08-04T15:18:49.157Z,26.80
2022-08-04T15:23:55.562Z,26.80
2022-08-04T15:29:07.905Z,26.80
2022-08-04T15:34:14.792Z,26.80
2022-08-04T15:39:29.528Z,26.80
2022-08-04T15:45:10.587Z,26.80
2022-08-04T15:50:15.144Z,26.80
2022-08-04T15:55:35.781Z,26.70
2022-08-04T16:01:14.914Z,26.70
2022-08-04T16:06:46.863Z,26.70
2022-08-04T16:11:52.526Z,26.70
2022-08-04T16:16:56.511Z,26.60
2022-08-04T16:22:03.041Z,26.60
2022-08-04T16:27:09.713Z,26.60
2022-08-04T16:32:22.139Z,26.60
2022-08-04T16:37:34.472Z,26.60
2022-08-04T16:42:39.822Z,26.60
2022-08-04T16:48:04.166Z,26.50
2022-08-04T16:53:14.619Z,26.30
2022-08-04T16:58:50.677Z,26.30
2022-08-04T17:04:05.530Z,26.20
2022-08-04T17:09:15.230Z,26.10
2022-08-04T17:14:25.603Z,26.10
2022-08-04T17:19:29.692Z,26.00
2022-08-04T17:24:35.077Z,25.90
2022-08-04T17:29:43.400Z,25.90
2022-08-04T17:34:50.190Z,25.80
2022-08-04T17:39:54.691Z,25.70
2022-08-04T17:45:49.053Z,25.60
2022-08-04T17:55:58.664Z,25.50
2022-08-04T18:01:28.533Z,25.50
2022-08-04T18:06:32.702Z,25.40
2022-08-04T18:11:42.256Z,25.40
2022-08-04T18:16:47.518Z,25.30
2022-08-04T18:22:01.373Z,25.20
2022-08-04T18:27:16.065Z,25.20
2022-08-04T18:32:24.008Z,25.10
2022-08-04T18:38:06.466Z,25.10
2022-08-04T18:43:03.683Z,25.00
2022-08-04T18:48:14.464Z,25.00
2022-08-04T18:53:18.683Z,24.90
2022-08-04T18:58:27.609Z,24.90
2022-08-04T19:03:33.180Z,24.70
2022-08-04T19:08:42.306Z,24.60
2022-08-04T19:13:46.546Z,24.50
2022-08-04T19:19:05.926Z,24.50
2022-08-04T19:24:32.769Z,24.50
2022-08-04T19:29:37.304Z,24.40
2022-08-04T19:34:46.415Z,24.40
2022-08-04T19:39:51.798Z,24.30
2022-08-04T19:44:56.238Z,24.20
2022-08-04T19:50:04.909Z,24.20
2022-08-04T19:55:14.647Z,24.10
2022-08-04T20:00:33.119Z,24.00
2022-08-04T20:05:53.127Z,24.00
2022-08-04T20:11:00.179Z,23.90
2022-08-04T20:16:04.229Z,23.90
2022-08-04T20:21:18.877Z,23.80
2022-08-04T20:26:27.844Z,23.80
2022-08-04T20:31:31.891Z,23.70
2022-08-04T20:36:36.942Z,23.70
2022-08-04T20:41:40.786Z,23.70
2022-08-04T20:46:49.080Z,23.60
2022-08-04T20:51:58.733Z,23.60
2022-08-04T20:57:02.882Z,23.60
2022-08-04T21:02:07.919Z,23.60
2022-08-04T21:07:22.996Z,23.50
2022-08-04T21:12:29.096Z,23.60
2022-08-04T21:17:56.577Z,23.50
2022-08-04T21:22:59.624Z,23.40
2022-08-04T21:28:05.850Z,23.30
2022-08-04T21:33:12.525Z,23.20
2022-08-04T21:38:20.153Z,23.20
2022-08-04T21:43:29.966Z,23.00
2022-08-04T21:48:48.654Z,22.90
2022-08-04T21:53:54.815Z,22.90
2022-08-04T21:58:58.963Z,22.80
2022-08-04T22:04:02.682Z,22.80
2022-08-04T22:09:14.706Z,22.70
2022-08-04T22:14:27.463Z,22.60
2022-08-04T22:19:40.693Z,22.60
2022-08-04T22:25:06.320Z,22.60
2022-08-04T22:30:18.094Z,22.50
2022-08-04T22:35:35.482Z,22.50
2022-08-04T22:40:50.083Z,22.50
2022-08-04T22:45:54.863Z,22.40
2022-08-04T22:50:59.767Z,22.40
2022-08-04T22:56:10.271Z,22.40
2022-08-04T23:01:15.616Z,22.30
2022-08-04T23:06:19.477Z,22.40
2022-08-04T23:11:34.830Z,22.30
2022-08-04T23:16:40.803Z,22.30
2022-08-04T23:21:47.285Z,22.30
2022-08-04T23:26:53.022Z,22.20
2022-08-04T23:31:59.719Z,22.20
2022-08-04T23:37:04.024Z,22.20
2022-08-04T23:42:09.267Z,22.20
2022-08-04T23:48:15.873Z,22.10
2022-08-04T23:52:43.431Z,22.10
2022-08-04T23:58:05.861Z,22.10
